sensor_id;sensor_type;location;lat;lon;timestamp;pressure;altitude;pressure_sealevel;temperature;humidity
61035;BME280;46916;40.564;-7.958;2022-07-23T00:01:49;97522.94;;;23.23;58.52
61035;BME280;46916;40.564;-7.958;2022-07-23T00:03:50;97530.31;;;23.21;58.42
61035;BME280;46916;40.564;-7.958;2022-07-23T00:05:52;97529.72;;;23.19;58.36
61035;BME280;46916;40.564;-7.958;2022-07-23T00:07:52;97521.06;;;23.17;58.36
61035;BME280;46916;40.564;-7.958;2022-07-23T00:09:53;97524.19;;;23.07;58.48
61035;BME280;46916;40.564;-7.958;2022-07-23T00:11:54;97529.09;;;23.04;58.48
61035;BME280;46916;40.564;-7.958;2022-07-23T00:13:54;97530.13;;;23.03;58.62
61035;BME280;46916;40.564;-7.958;2022-07-23T00:15:56;97528.69;;;23.00;58.46
61035;BME280;46916;40.564;-7.958;2022-07-23T00:17:57;97527.88;;;22.99;58.30
61035;BME280;46916;40.564;-7.958;2022-07-23T00:19:57;97528.91;;;22.98;58.41
61035;BME280;46916;40.564;-7.958;2022-07-23T00:21:58;97525.22;;;22.99;58.60
61035;BME280;46916;40.564;-7.958;2022-07-23T00:23:59;97526.25;;;22.98;58.43
61035;BME280;46916;40.564;-7.958;2022-07-23T00:25:59;97524.38;;;22.99;58.18
61035;BME280;46916;40.564;-7.958;2022-07-23T00:28:01;97532.41;;;22.99;58.46
61035;BME280;46916;40.564;-7.958;2022-07-23T00:30:02;97528.06;;;22.98;58.05
61035;BME280;46916;40.564;-7.958;2022-07-23T00:32:03;97527.25;;;22.97;58.22
61035;BME280;46916;40.564;-7.958;2022-07-23T00:34:04;97524.56;;;22.97;58.35
61035;BME280;46916;40.564;-7.958;2022-07-23T00:36:05;97530.13;;;22.96;57.81
61035;BME280;46916;40.564;-7.958;2022-07-23T00:38:07;97520.47;;;22.95;57.98
61035;BME280;46916;40.564;-7.958;2022-07-23T00:40:10;97517.56;;;22.90;57.93
61035;BME280;46916;40.564;-7.958;2022-07-23T00:42:10;97519.41;;;22.89;58.03
61035;BME280;46916;40.564;-7.958;2022-07-23T00:44:22;97519.41;;;22.89;58.16
61035;BME280;46916;40.564;-7.958;2022-07-23T00:46:23;97524.56;;;22.84;58.25
61035;BME280;46916;40.564;-7.958;2022-07-23T00:48:25;97515.94;;;22.82;58.21
61035;BME280;46916;40.564;-7.958;2022-07-23T00:50:26;97522.91;;;22.83;58.32
61035;BME280;46916;40.564;-7.958;2022-07-23T00:52:26;97516.13;;;22.81;58.12
61035;BME280;46916;40.564;-7.958;2022-07-23T00:54:27;97513.03;;;22.77;58.27
61035;BME280;46916;40.564;-7.958;2022-07-23T00:56:29;97513.69;;;22.79;58.30
61035;BME280;46916;40.564;-7.958;2022-07-23T00:58:31;97515.94;;;22.82;58.17
61035;BME280;46916;40.564;-7.958;2022-07-23T01:00:32;97507.09;;;22.82;58.15
61035;BME280;46916;40.564;-7.958;2022-07-23T01:02:32;97505.88;;;22.84;58.35
61035;BME280;46916;40.564;-7.958;2022-07-23T01:04:33;97509.56;;;22.83;58.27
61035;BME280;46916;40.564;-7.958;2022-07-23T01:06:36;97499.91;;;22.82;57.96
61035;BME280;46916;40.564;-7.958;2022-07-23T01:08:37;97505.44;;;22.81;58.19
61035;BME280;46916;40.564;-7.958;2022-07-23T01:10:38;97503.00;;;22.79;58.33
61035;BME280;46916;40.564;-7.958;2022-07-23T01:12:39;97498.88;;;22.77;58.34
61035;BME280;46916;40.564;-7.958;2022-07-23T01:14:40;97500.94;;;22.68;58.25
61035;BME280;46916;40.564;-7.958;2022-07-23T01:16:41;97503.41;;;22.63;58.43
61035;BME280;46916;40.564;-7.958;2022-07-23T01:18:42;97496.41;;;22.55;58.93
61035;BME280;46916;40.564;-7.958;2022-07-23T01:20:43;97508.31;;;22.53;58.70
61035;BME280;46916;40.564;-7.958;2022-07-23T01:22:44;97502.78;;;22.54;58.51
61035;BME280;46916;40.564;-7.958;2022-07-23T01:24:45;97492.72;;;22.56;58.72
61035;BME280;46916;40.564;-7.958;2022-07-23T01:26:47;97489.84;;;22.58;58.76
61035;BME280;46916;40.564;-7.958;2022-07-23T01:28:48;97487.78;;;22.60;58.14
61035;BME280;46916;40.564;-7.958;2022-07-23T01:30:49;97484.09;;;22.61;58.20
61035;BME280;46916;40.564;-7.958;2022-07-23T01:32:50;97481.63;;;22.59;58.26
61035;BME280;46916;40.564;-7.958;2022-07-23T01:34:50;97480.19;;;22.57;58.22
61035;BME280;46916;40.564;-7.958;2022-07-23T01:36:51;97477.50;;;22.57;58.60
61035;BME280;46916;40.564;-7.958;2022-07-23T01:38:53;97477.72;;;22.55;58.37
61035;BME280;46916;40.564;-7.958;2022-07-23T01:40:54;97478.75;;;22.54;58.27
61035;BME280;46916;40.564;-7.958;2022-07-23T01:42:55;97473.19;;;22.49;58.47
61035;BME280;46916;40.564;-7.958;2022-07-23T01:44:57;97475.47;;;22.45;58.73
61035;BME280;46916;40.564;-7.958;2022-07-23T01:46:57;97473.22;;;22.42;58.69
61035;BME280;46916;40.564;-7.958;2022-07-23T01:48:58;97465.38;;;22.41;58.60
61035;BME280;46916;40.564;-7.958;2022-07-23T01:51:28;97466.63;;;22.38;58.73
61035;BME280;46916;40.564;-7.958;2022-07-23T01:53:38;97464.38;;;22.35;58.37
61035;BME280;46916;40.564;-7.958;2022-07-23T01:55:39;97463.94;;;22.32;58.76
61035;BME280;46916;40.564;-7.958;2022-07-23T01:57:40;97458.19;;;22.28;58.49
61035;BME280;46916;40.564;-7.958;2022-07-23T01:59:41;97462.72;;;22.21;58.72
61035;BME280;46916;40.564;-7.958;2022-07-23T02:01:43;97457.97;;;22.16;58.74
61035;BME280;46916;40.564;-7.958;2022-07-23T02:03:44;97458.53;;;22.12;58.96
61035;BME280;46916;40.564;-7.958;2022-07-23T02:05:44;97452.59;;;22.10;59.36
61035;BME280;46916;40.564;-7.958;2022-07-23T02:07:46;97451.78;;;22.09;59.28
61035;BME280;46916;40.564;-7.958;2022-07-23T02:09:46;97454.25;;;22.11;59.48
61035;BME280;46916;40.564;-7.958;2022-07-23T02:11:47;97447.44;;;22.08;59.42
61035;BME280;46916;40.564;-7.958;2022-07-23T02:13:48;97454.84;;;22.06;59.43
61035;BME280;46916;40.564;-7.958;2022-07-23T02:15:48;97449.31;;;22.08;59.75
61035;BME280;46916;40.564;-7.958;2022-07-23T02:17:49;97454.44;;;22.09;59.60
61035;BME280;46916;40.564;-7.958;2022-07-23T02:19:50;97447.88;;;22.12;59.83
61035;BME280;46916;40.564;-7.958;2022-07-23T02:21:50;97452.25;;;22.13;59.46
61035;BME280;46916;40.564;-7.958;2022-07-23T02:23:53;97450.16;;;22.15;59.65
61035;BME280;46916;40.564;-7.958;2022-07-23T02:25:54;97445.66;;;22.15;59.41
61035;BME280;46916;40.564;-7.958;2022-07-23T02:27:55;97455.06;;;22.11;59.86
61035;BME280;46916;40.564;-7.958;2022-07-23T02:29:56;97447.88;;;22.12;59.80
61035;BME280;46916;40.564;-7.958;2022-07-23T02:31:58;97452.25;;;22.13;59.94
61035;BME280;46916;40.564;-7.958;2022-07-23T02:33:58;97458.38;;;22.13;59.75
61035;BME280;46916;40.564;-7.958;2022-07-23T02:35:59;97453.22;;;22.12;59.62
61035;BME280;46916;40.564;-7.958;2022-07-23T02:38:00;97450.13;;;22.08;59.76
61035;BME280;46916;40.564;-7.958;2022-07-23T02:40:02;97447.66;;;22.07;59.55
61035;BME280;46916;40.564;-7.958;2022-07-23T02:42:05;97444.19;;;22.06;59.76
61035;BME280;46916;40.564;-7.958;2022-07-23T02:44:08;97442.72;;;22.04;59.73
61035;BME280;46916;40.564;-7.958;2022-07-23T02:46:09;97444.97;;;22.00;59.29
61035;BME280;46916;40.564;-7.958;2022-07-23T02:48:10;97441.69;;;21.91;59.71
61035;BME280;46916;40.564;-7.958;2022-07-23T02:50:13;97447.19;;;21.76;59.69
61035;BME280;46916;40.564;-7.958;2022-07-23T02:52:14;97455.16;;;21.70;59.75
61035;BME280;46916;40.564;-7.958;2022-07-23T02:54:16;97445.09;;;21.65;59.67
61035;BME280;46916;40.564;-7.958;2022-07-23T02:56:17;97449.50;;;21.45;60.29
61035;BME280;46916;40.564;-7.958;2022-07-23T02:58:17;97446.72;;;21.25;60.54
61035;BME280;46916;40.564;-7.958;2022-07-23T03:00:18;97450.38;;;21.17;60.74
61035;BME280;46916;40.564;-7.958;2022-07-23T03:02:19;97447.69;;;21.17;60.85
61035;BME280;46916;40.564;-7.958;2022-07-23T03:04:20;97445.03;;;21.17;60.85
61035;BME280;46916;40.564;-7.958;2022-07-23T03:06:21;97444.00;;;21.12;61.14
61035;BME280;46916;40.564;-7.958;2022-07-23T03:08:21;97440.91;;;21.08;61.05
61035;BME280;46916;40.564;-7.958;2022-07-23T03:10:25;97440.06;;;21.08;60.96
61035;BME280;46916;40.564;-7.958;2022-07-23T03:12:26;97439.25;;;21.07;61.23
61035;BME280;46916;40.564;-7.958;2022-07-23T03:14:27;97447.25;;;21.14;60.80
61035;BME280;46916;40.564;-7.958;2022-07-23T03:16:28;97459.00;;;21.19;60.64
61035;BME280;46916;40.564;-7.958;2022-07-23T03:18:28;97458.84;;;21.27;60.10
61035;BME280;46916;40.564;-7.958;2022-07-23T03:20:29;97449.25;;;21.33;60.22
61035;BME280;46916;40.564;-7.958;2022-07-23T03:22:30;97451.31;;;21.38;59.95
61035;BME280;46916;40.564;-7.958;2022-07-23T03:24:31;97452.78;;;21.40;59.80
61035;BME280;46916;40.564;-7.958;2022-07-23T03:26:51;97457.47;;;21.38;60.00
61035;BME280;46916;40.564;-7.958;2022-07-23T03:28:51;97460.78;;;21.40;60.29
61035;BME280;46916;40.564;-7.958;2022-07-23T03:30:53;97459.53;;;21.43;59.87
61035;BME280;46916;40.564;-7.958;2022-07-23T03:32:55;97455.47;;;21.47;60.11
61035;BME280;46916;40.564;-7.958;2022-07-23T03:34:55;97455.47;;;21.47;60.00
61035;BME280;46916;40.564;-7.958;2022-07-23T03:36:56;97450.56;;;21.50;59.80
61035;BME280;46916;40.564;-7.958;2022-07-23T03:38:57;97454.25;;;21.49;59.63
61035;BME280;46916;40.564;-7.958;2022-07-23T03:40:59;97458.38;;;21.52;59.72
61035;BME280;46916;40.564;-7.958;2022-07-23T03:42:59;97457.72;;;21.50;59.76
61035;BME280;46916;40.564;-7.958;2022-07-23T03:45:00;97460.41;;;21.50;59.73
61035;BME280;46916;40.564;-7.958;2022-07-23T03:47:02;97463.69;;;21.52;59.62
61035;BME280;46916;40.564;-7.958;2022-07-23T03:49:03;97456.53;;;21.52;59.52
61035;BME280;46916;40.564;-7.958;2022-07-23T03:51:04;97457.56;;;21.51;59.83
61035;BME280;46916;40.564;-7.958;2022-07-23T03:53:04;97453.63;;;21.47;59.73
61035;BME280;46916;40.564;-7.958;2022-07-23T03:55:07;97451.38;;;21.44;60.10
61035;BME280;46916;40.564;-7.958;2022-07-23T03:57:09;97442.50;;;21.37;60.26
61035;BME280;46916;40.564;-7.958;2022-07-23T03:59:10;97444.94;;;21.32;60.49
61035;BME280;46916;40.564;-7.958;2022-07-23T04:01:11;97445.09;;;21.31;60.15
61035;BME280;46916;40.564;-7.958;2022-07-23T04:03:12;97449.81;;;21.28;60.56
61035;BME280;46916;40.564;-7.958;2022-07-23T04:05:14;97453.28;;;21.29;61.00
61035;BME280;46916;40.564;-7.958;2022-07-23T04:07:17;97448.63;;;21.31;60.63
61035;BME280;46916;40.564;-7.958;2022-07-23T04:09:18;97450.03;;;21.27;61.06
61035;BME280;46916;40.564;-7.958;2022-07-23T04:11:19;97446.72;;;21.25;61.03
61035;BME280;46916;40.564;-7.958;2022-07-23T04:13:20;97445.91;;;21.24;60.99
61035;BME280;46916;40.564;-7.958;2022-07-23T04:15:21;97442.22;;;21.25;61.20
61035;BME280;46916;40.564;-7.958;2022-07-23T04:17:22;97444.69;;;21.27;61.16
61035;BME280;46916;40.564;-7.958;2022-07-23T04:19:23;97438.94;;;21.30;60.71
61035;BME280;46916;40.564;-7.958;2022-07-23T04:21:34;97446.59;;;21.33;60.75
61035;BME280;46916;40.564;-7.958;2022-07-23T04:23:35;97443.09;;;21.33;60.30
61035;BME280;46916;40.564;-7.958;2022-07-23T04:25:36;97444.75;;;21.34;60.75
61035;BME280;46916;40.564;-7.958;2022-07-23T04:27:37;97445.19;;;21.37;60.09
61035;BME280;46916;40.564;-7.958;2022-07-23T04:29:38;97447.84;;;21.37;59.67
61035;BME280;46916;40.564;-7.958;2022-07-23T04:31:39;97451.63;;;21.21;59.75
61035;BME280;46916;40.564;-7.958;2022-07-23T04:33:40;97448.44;;;21.05;59.98
61035;BME280;46916;40.564;-7.958;2022-07-23T04:35:42;97444.31;;;21.02;60.16
61035;BME280;46916;40.564;-7.958;2022-07-23T04:37:48;97448.81;;;20.95;59.98
61035;BME280;46916;40.564;-7.958;2022-07-23T04:39:50;97445.63;;;20.78;60.18
61035;BME280;46916;40.564;-7.958;2022-07-23T04:41:51;97440.81;;;20.67;60.28
61035;BME280;46916;40.564;-7.958;2022-07-23T04:43:52;97434.63;;;20.60;60.64
61035;BME280;46916;40.564;-7.958;2022-07-23T04:45:53;97449.78;;;20.59;60.62
61035;BME280;46916;40.564;-7.958;2022-07-23T04:47:54;97439.56;;;20.63;60.71
61035;BME280;46916;40.564;-7.958;2022-07-23T04:49:56;97435.69;;;20.65;60.55
61035;BME280;46916;40.564;-7.958;2022-07-23T04:51:57;97443.28;;;20.68;61.02
61035;BME280;46916;40.564;-7.958;2022-07-23T04:53:58;97442.91;;;20.71;60.38
61035;BME280;46916;40.564;-7.958;2022-07-23T04:55:59;97444.97;;;20.76;60.72
61035;BME280;46916;40.564;-7.958;2022-07-23T04:58:00;97442.56;;;20.81;60.12
61035;BME280;46916;40.564;-7.958;2022-07-23T05:00:02;97449.91;;;20.79;60.10
61035;BME280;46916;40.564;-7.958;2022-07-23T05:02:04;97448.09;;;20.80;60.64
61035;BME280;46916;40.564;-7.958;2022-07-23T05:04:05;97449.72;;;20.81;60.69
61035;BME280;46916;40.564;-7.958;2022-07-23T05:06:09;97445.66;;;20.85;60.35
61035;BME280;46916;40.564;-7.958;2022-07-23T05:08:11;97462.06;;;20.88;60.23
61035;BME280;46916;40.564;-7.958;2022-07-23T05:10:13;97451.22;;;20.90;60.05
61035;BME280;46916;40.564;-7.958;2022-07-23T05:12:14;97451.03;;;20.91;60.37
61035;BME280;46916;40.564;-7.958;2022-07-23T05:14:17;97442.03;;;20.92;60.06
61035;BME280;46916;40.564;-7.958;2022-07-23T05:16:18;97442.47;;;20.96;59.75
61035;BME280;46916;40.564;-7.958;2022-07-23T05:18:19;97447.78;;;20.96;60.03
61035;BME280;46916;40.564;-7.958;2022-07-23T05:20:20;97441.59;;;20.89;60.05
61035;BME280;46916;40.564;-7.958;2022-07-23T05:22:21;97447.13;;;20.87;60.47
61035;BME280;46916;40.564;-7.958;2022-07-23T05:24:22;97453.47;;;20.86;60.26
61035;BME280;46916;40.564;-7.958;2022-07-23T05:26:24;97453.47;;;20.86;60.13
61035;BME280;46916;40.564;-7.958;2022-07-23T05:28:25;97447.63;;;20.76;60.28
61035;BME280;46916;40.564;-7.958;2022-07-23T05:30:27;97451.50;;;20.73;60.41
61035;BME280;46916;40.564;-7.958;2022-07-23T05:32:33;97448.84;;;20.73;60.48
61035;BME280;46916;40.564;-7.958;2022-07-23T05:34:42;97449.72;;;20.81;60.53
61035;BME280;46916;40.564;-7.958;2022-07-23T05:36:43;97453.03;;;20.83;60.03
61035;BME280;46916;40.564;-7.958;2022-07-23T05:38:45;97447.13;;;20.87;60.31
61035;BME280;46916;40.564;-7.958;2022-07-23T05:40:45;97452.22;;;20.89;60.36
61035;BME280;46916;40.564;-7.958;2022-07-23T05:42:46;97452.38;;;20.81;60.28
61035;BME280;46916;40.564;-7.958;2022-07-23T05:44:47;97449.41;;;20.69;60.87
61035;BME280;46916;40.564;-7.958;2022-07-23T05:46:48;97448.75;;;20.60;61.14
61035;BME280;46916;40.564;-7.958;2022-07-23T05:48:54;97453.63;;;20.57;60.90
61035;BME280;46916;40.564;-7.958;2022-07-23T05:51:23;97451.66;;;20.65;61.04
61035;BME280;46916;40.564;-7.958;2022-07-23T05:53:25;97451.72;;;20.72;60.78
61035;BME280;46916;40.564;-7.958;2022-07-23T05:55:34;97456.66;;;20.75;60.82
61035;BME280;46916;40.564;-7.958;2022-07-23T05:57:36;97458.13;;;20.84;60.33
61035;BME280;46916;40.564;-7.958;2022-07-23T05:59:37;97458.00;;;20.92;60.06
61035;BME280;46916;40.564;-7.958;2022-07-23T06:01:37;97462.56;;;20.98;59.78
61035;BME280;46916;40.564;-7.958;2022-07-23T06:03:44;97460.13;;;21.03;59.82
61035;BME280;46916;40.564;-7.958;2022-07-23T06:05:44;97459.03;;;20.98;59.44
61035;BME280;46916;40.564;-7.958;2022-07-23T06:07:45;97458.13;;;20.84;59.70
61035;BME280;46916;40.564;-7.958;2022-07-23T06:09:48;97456.06;;;20.80;60.22
61035;BME280;46916;40.564;-7.958;2022-07-23T06:11:49;97453.19;;;20.81;60.25
61035;BME280;46916;40.564;-7.958;2022-07-23T06:13:50;97450.94;;;20.78;60.31
61035;BME280;46916;40.564;-7.958;2022-07-23T06:15:53;97453.63;;;20.85;59.87
61035;BME280;46916;40.564;-7.958;2022-07-23T06:17:54;97457.19;;;20.92;59.84
61035;BME280;46916;40.564;-7.958;2022-07-23T06:19:56;97455.13;;;20.94;59.82
61035;BME280;46916;40.564;-7.958;2022-07-23T06:21:57;97456.78;;;20.95;60.07
61035;BME280;46916;40.564;-7.958;2022-07-23T06:23:58;97465.00;;;21.00;60.14
61035;BME280;46916;40.564;-7.958;2022-07-23T06:25:59;97463.66;;;21.11;59.63
61035;BME280;46916;40.564;-7.958;2022-07-23T06:28:00;97466.78;;;21.21;59.41
61035;BME280;46916;40.564;-7.958;2022-07-23T06:30:01;97471.72;;;21.31;59.20
61035;BME280;46916;40.564;-7.958;2022-07-23T06:32:01;97476.53;;;21.35;59.43
61035;BME280;46916;40.564;-7.958;2022-07-23T06:34:02;97473.28;;;21.40;59.23
61035;BME280;46916;40.564;-7.958;2022-07-23T06:36:03;97474.09;;;21.47;58.75
61035;BME280;46916;40.564;-7.958;2022-07-23T06:38:04;97470.03;;;21.51;59.18
61035;BME280;46916;40.564;-7.958;2022-07-23T06:40:05;97471.69;;;21.59;58.87
61035;BME280;46916;40.564;-7.958;2022-07-23T06:42:11;97474.19;;;21.60;58.79
61035;BME280;46916;40.564;-7.958;2022-07-23T06:44:19;97483.63;;;21.63;58.63
61035;BME280;46916;40.564;-7.958;2022-07-23T06:46:22;97478.91;;;21.65;58.35
61035;BME280;46916;40.564;-7.958;2022-07-23T06:48:24;97481.75;;;21.63;58.51
61035;BME280;46916;40.564;-7.958;2022-07-23T06:50:24;97480.16;;;21.69;58.08
61035;BME280;46916;40.564;-7.958;2022-07-23T06:52:25;97481.84;;;21.76;58.32
61035;BME280;46916;40.564;-7.958;2022-07-23T06:54:26;97487.59;;;21.80;58.02
61035;BME280;46916;40.564;-7.958;2022-07-23T06:56:27;97477.75;;;21.81;57.84
61035;BME280;46916;40.564;-7.958;2022-07-23T06:58:28;97486.41;;;21.89;57.85
61035;BME280;46916;40.564;-7.958;2022-07-23T07:00:29;97485.56;;;21.95;57.97
61035;BME280;46916;40.564;-7.958;2022-07-23T07:02:32;97481.91;;;22.03;57.27
61035;BME280;46916;40.564;-7.958;2022-07-23T07:04:33;97489.94;;;22.10;57.43
61035;BME280;46916;40.564;-7.958;2022-07-23T07:06:34;97488.16;;;22.17;56.96
61035;BME280;46916;40.564;-7.958;2022-07-23T07:08:35;97489.97;;;22.16;56.99
61035;BME280;46916;40.564;-7.958;2022-07-23T07:10:36;97484.06;;;22.21;56.88
61035;BME280;46916;40.564;-7.958;2022-07-23T07:12:37;97489.59;;;22.26;56.26
61035;BME280;46916;40.564;-7.958;2022-07-23T07:14:37;97484.69;;;22.30;55.75
61035;BME280;46916;40.564;-7.958;2022-07-23T07:16:38;97484.47;;;22.31;55.40
61035;BME280;46916;40.564;-7.958;2022-07-23T07:18:39;97482.81;;;22.37;54.68
61035;BME280;46916;40.564;-7.958;2022-07-23T07:20:40;97487.56;;;22.41;54.53
61035;BME280;46916;40.564;-7.958;2022-07-23T07:22:41;97490.03;;;22.56;54.45
61035;BME280;46916;40.564;-7.958;2022-07-23T07:24:41;97488.81;;;22.65;53.86
61035;BME280;46916;40.564;-7.958;2022-07-23T07:26:42;97483.47;;;22.72;53.64
61035;BME280;46916;40.564;-7.958;2022-07-23T07:28:43;97497.44;;;22.81;53.11
61035;BME280;46916;40.564;-7.958;2022-07-23T07:30:44;97488.41;;;22.82;53.06
61035;BME280;46916;40.564;-7.958;2022-07-23T07:32:45;97485.13;;;22.86;52.63
61035;BME280;46916;40.564;-7.958;2022-07-23T07:34:46;97490.69;;;22.91;52.22
61035;BME280;46916;40.564;-7.958;2022-07-23T07:36:46;97497.47;;;22.94;52.20
61035;BME280;46916;40.564;-7.958;2022-07-23T07:38:47;97490.06;;;22.96;52.01
61035;BME280;46916;40.564;-7.958;2022-07-23T07:40:48;97498.50;;;22.99;52.36
61035;BME280;46916;40.564;-7.958;2022-07-23T07:42:51;97500.94;;;23.01;51.68
61035;BME280;46916;40.564;-7.958;2022-07-23T07:44:53;97496.88;;;22.98;52.10
61035;BME280;46916;40.564;-7.958;2022-07-23T07:46:53;97494.16;;;23.05;51.85
61035;BME280;46916;40.564;-7.958;2022-07-23T07:48:54;97490.47;;;23.13;51.25
61035;BME280;46916;40.564;-7.958;2022-07-23T07:50:55;97489.84;;;23.17;51.42
61035;BME280;46916;40.564;-7.958;2022-07-23T07:52:56;97494.13;;;23.25;50.84
61035;BME280;46916;40.564;-7.958;2022-07-23T07:54:57;97495.13;;;23.31;50.62
61035;BME280;46916;40.564;-7.958;2022-07-23T07:56:57;97484.84;;;23.34;50.55
61035;BME280;46916;40.564;-7.958;2022-07-23T07:58:58;97483.63;;;23.37;50.53
61035;BME280;46916;40.564;-7.958;2022-07-23T08:00:59;97480.31;;;23.41;50.23
61035;BME280;46916;40.564;-7.958;2022-07-23T08:03:01;97490.19;;;23.47;50.40
61035;BME280;46916;40.564;-7.958;2022-07-23T08:05:01;97490.19;;;23.47;50.56
61035;BME280;46916;40.564;-7.958;2022-07-23T08:07:03;97491.41;;;23.52;50.33
61035;BME280;46916;40.564;-7.958;2022-07-23T08:09:03;97494.47;;;23.55;50.25
61035;BME280;46916;40.564;-7.958;2022-07-23T08:11:04;97490.78;;;23.56;49.82
61035;BME280;46916;40.564;-7.958;2022-07-23T08:13:05;97488.50;;;23.60;50.00
61035;BME280;46916;40.564;-7.958;2022-07-23T08:15:07;97492.00;;;23.60;50.13
61035;BME280;46916;40.564;-7.958;2022-07-23T08:17:08;97488.69;;;23.65;50.38
61035;BME280;46916;40.564;-7.958;2022-07-23T08:19:09;97487.25;;;23.69;50.65
61035;BME280;46916;40.564;-7.958;2022-07-23T08:21:10;97488.06;;;23.76;50.21
61035;BME280;46916;40.564;-7.958;2022-07-23T08:23:11;97492.56;;;23.82;50.45
61035;BME280;46916;40.564;-7.958;2022-07-23T08:25:13;97486.38;;;23.88;50.10
61035;BME280;46916;40.564;-7.958;2022-07-23T08:27:14;97486.53;;;23.93;49.87
61035;BME280;46916;40.564;-7.958;2022-07-23T08:29:15;97486.72;;;23.98;49.88
61035;BME280;46916;40.564;-7.958;2022-07-23T08:31:16;97493.28;;;24.03;49.62
61035;BME280;46916;40.564;-7.958;2022-07-23T08:33:18;97491.81;;;24.07;49.88
61035;BME280;46916;40.564;-7.958;2022-07-23T08:35:46;97486.84;;;24.17;49.69
61035;BME280;46916;40.564;-7.958;2022-07-23T08:37:48;97497.47;;;24.23;49.51
61035;BME280;46916;40.564;-7.958;2022-07-23T08:39:49;97491.47;;;24.28;49.30
61035;BME280;46916;40.564;-7.958;2022-07-23T08:41:49;97496.19;;;24.33;48.92
61035;BME280;46916;40.564;-7.958;2022-07-23T08:43:51;97489.34;;;24.43;48.63
61035;BME280;46916;40.564;-7.958;2022-07-23T08:45:55;97494.94;;;24.42;48.73
61035;BME280;46916;40.564;-7.958;2022-07-23T08:47:57;97498.44;;;24.42;48.96
61035;BME280;46916;40.564;-7.958;2022-07-23T08:50:01;97496.34;;;24.44;49.38
61035;BME280;46916;40.564;-7.958;2022-07-23T08:52:02;97494.88;;;24.49;48.92
61035;BME280;46916;40.564;-7.958;2022-07-23T08:54:03;97488.06;;;24.53;49.15
61035;BME280;46916;40.564;-7.958;2022-07-23T08:56:04;97496.69;;;24.55;49.03
61035;BME280;46916;40.564;-7.958;2022-07-23T08:58:05;97487.41;;;24.57;49.19
61035;BME280;46916;40.564;-7.958;2022-07-23T09:00:07;97490.03;;;24.64;49.06
61035;BME280;46916;40.564;-7.958;2022-07-23T09:02:08;97492.88;;;24.69;48.82
61035;BME280;46916;40.564;-7.958;2022-07-23T09:04:09;97488.72;;;24.73;48.57
61035;BME280;46916;40.564;-7.958;2022-07-23T09:06:09;97492.59;;;24.77;48.33
61035;BME280;46916;40.564;-7.958;2022-07-23T09:08:19;97495.47;;;24.82;48.85
61035;BME280;46916;40.564;-7.958;2022-07-23T09:10:21;97494.81;;;24.87;48.49
61035;BME280;46916;40.564;-7.958;2022-07-23T09:12:25;97498.44;;;24.92;48.50
61035;BME280;46916;40.564;-7.958;2022-07-23T09:14:45;97491.84;;;24.95;48.33
61035;BME280;46916;40.564;-7.958;2022-07-23T09:16:48;97487.06;;;24.97;48.48
61035;BME280;46916;40.564;-7.958;2022-07-23T09:21:05;97497.31;;;25.07;48.16
61035;BME280;46916;40.564;-7.958;2022-07-23T09:23:06;97500.38;;;25.10;47.80
61035;BME280;46916;40.564;-7.958;2022-07-23T09:25:16;97495.41;;;25.14;48.16
61035;BME280;46916;40.564;-7.958;2022-07-23T09:27:17;97496.16;;;25.21;48.01
61035;BME280;46916;40.564;-7.958;2022-07-23T09:29:25;97488.66;;;25.30;47.83
61035;BME280;46916;40.564;-7.958;2022-07-23T09:31:32;97494.16;;;25.35;47.61
61035;BME280;46916;40.564;-7.958;2022-07-23T09:33:33;97495.34;;;25.39;47.42
61035;BME280;46916;40.564;-7.958;2022-07-23T09:35:51;97492.22;;;25.42;47.09
61035;BME280;46916;40.564;-7.958;2022-07-23T09:38:02;97499.00;;;25.44;46.66
61035;BME280;46916;40.564;-7.958;2022-07-23T09:40:08;97491.34;;;25.48;46.43
61035;BME280;46916;40.564;-7.958;2022-07-23T09:42:20;97488.81;;;25.53;46.14
61035;BME280;46916;40.564;-7.958;2022-07-23T09:44:22;97492.81;;;25.62;46.12
61035;BME280;46916;40.564;-7.958;2022-07-23T09:46:25;97491.13;;;25.68;46.19
61035;BME280;46916;40.564;-7.958;2022-07-23T09:48:26;97495.44;;;25.69;46.15
61035;BME280;46916;40.564;-7.958;2022-07-23T09:50:27;97497.88;;;25.70;46.30
61035;BME280;46916;40.564;-7.958;2022-07-23T09:52:29;97491.72;;;25.70;45.92
61035;BME280;46916;40.564;-7.958;2022-07-23T09:54:31;97486.94;;;25.72;46.55
61035;BME280;46916;40.564;-7.958;2022-07-23T09:56:36;97479.66;;;25.79;45.90
61035;BME280;46916;40.564;-7.958;2022-07-23T09:58:39;97486.38;;;25.88;45.83
61035;BME280;46916;40.564;-7.958;2022-07-23T10:00:50;97484.63;;;25.94;45.19
61035;BME280;46916;40.564;-7.958;2022-07-23T10:02:51;97488.06;;;26.01;45.01
61035;BME280;46916;40.564;-7.958;2022-07-23T10:05:01;97484.09;;;26.04;45.33
61035;BME280;46916;40.564;-7.958;2022-07-23T10:07:25;97481.19;;;26.05;45.39
61035;BME280;46916;40.564;-7.958;2022-07-23T10:09:47;97481.09;;;26.12;45.19
61035;BME280;46916;40.564;-7.958;2022-07-23T10:12:14;97483.94;;;26.17;44.89
61035;BME280;46916;40.564;-7.958;2022-07-23T10:14:35;97481.72;;;26.26;44.66
61035;BME280;46916;40.564;-7.958;2022-07-23T10:16:39;97484.31;;;26.32;44.78
61035;BME280;46916;40.564;-7.958;2022-07-23T10:18:40;97475.78;;;26.35;44.45
61035;BME280;46916;40.564;-7.958;2022-07-23T10:20:41;97478.78;;;26.46;44.76
61035;BME280;46916;40.564;-7.958;2022-07-23T10:23:02;97476.22;;;26.51;44.73
61035;BME280;46916;40.564;-7.958;2022-07-23T10:29:57;97482.78;;;26.66;44.50
61035;BME280;46916;40.564;-7.958;2022-07-23T10:32:04;97476.13;;;26.69;44.25
61035;BME280;46916;40.564;-7.958;2022-07-23T10:34:31;97477.28;;;26.73;43.70
61035;BME280;46916;40.564;-7.958;2022-07-23T10:41:05;97471.59;;;26.93;42.82
61035;BME280;46916;40.564;-7.958;2022-07-23T10:43:13;97476.06;;;26.99;42.15
61035;BME280;46916;40.564;-7.958;2022-07-23T10:45:34;97474.44;;;27.10;42.39
61035;BME280;46916;40.564;-7.958;2022-07-23T10:47:35;97477.00;;;27.16;41.86
61035;BME280;46916;40.564;-7.958;2022-07-23T10:49:36;97474.06;;;27.18;41.89
61035;BME280;46916;40.564;-7.958;2022-07-23T10:51:37;97464.97;;;27.19;41.83
61035;BME280;46916;40.564;-7.958;2022-07-23T10:53:57;97465.66;;;27.26;41.42